Time;durP1;ratioP1;P1;durP2;ratioP2;P2;SDS_P1;SDS_P2;PMS_P1;PMS_P2;Temp;Humidity;BMP_temperature;BMP_pressure;BME280_temperature;BME280_humidity;BME280_pressure;Samples;Min_cycle;Max_cycle;Signal;HPM_P1;HPM_P2
2021/01/16 00:00:58;;;;;;;9.75;7.32;;;0.60;99.90;;;;;;5064551;28;20214;-73
2021/01/16 00:03:24;;;;;;;9.60;8.05;;;0.60;99.90;;;;;;5071552;28;20186;-73
2021/01/16 00:05:51;;;;;;;8.07;7.17;;;0.60;99.90;;;;;;5071070;28;20247;-73
2021/01/16 00:08:20;;;;;;;10.30;7.30;;;0.60;99.90;;;;;;5080728;28;20189;-73
2021/01/16 00:10:47;;;;;;;11.70;7.97;;;0.60;99.90;;;;;;5070816;28;20265;-73
2021/01/16 00:13:14;;;;;;;11.55;8.00;;;0.60;99.90;;;;;;5071241;28;20790;-74
2021/01/16 00:15:41;;;;;;;14.40;8.23;;;0.60;99.90;;;;;;5068426;28;20177;-73
2021/01/16 00:18:12;;;;;;;11.77;7.80;;;0.60;99.90;;;;;;5071804;28;20202;-73
2021/01/16 00:20:40;;;;;;;12.65;8.75;;;0.60;99.90;;;;;;5070940;28;20281;-73
2021/01/16 00:23:06;;;;;;;10.98;8.50;;;0.60;99.90;;;;;;5071585;28;20182;-73
2021/01/16 00:25:33;;;;;;;9.57;8.57;;;0.60;99.90;;;;;;5070786;28;20197;-73
2021/01/16 00:27:59;;;;;;;12.57;8.50;;;0.60;99.90;;;;;;5071900;28;20179;-73
2021/01/16 00:30:27;;;;;;;13.23;9.13;;;0.60;99.90;;;;;;5071261;28;20194;-73
2021/01/16 00:32:53;;;;;;;13.85;8.75;;;0.60;99.90;;;;;;5051960;28;20224;-73
2021/01/16 00:35:19;;;;;;;11.32;7.75;;;0.60;99.90;;;;;;5056573;28;20260;-73
2021/01/16 00:37:47;;;;;;;12.23;8.52;;;0.60;99.90;;;;;;5070861;28;20182;-73
2021/01/16 00:40:16;;;;;;;13.35;7.95;;;0.60;99.90;;;;;;5071742;28;20190;-73
2021/01/16 00:42:46;;;;;;;13.70;8.15;;;0.60;99.90;;;;;;5070903;28;20565;-73
2021/01/16 00:45:13;;;;;;;9.30;7.28;;;0.60;99.90;;;;;;5072782;28;20692;-73
2021/01/16 00:47:39;;;;;;;8.93;7.60;;;0.60;99.90;;;;;;5074702;28;20189;-73
2021/01/16 00:50:07;;;;;;;7.97;6.65;;;0.50;99.90;;;;;;5075116;28;20243;-73
2021/01/16 00:52:33;;;;;;;15.50;8.25;;;0.50;99.90;;;;;;5070531;28;20580;-73
2021/01/16 00:54:59;;;;;;;15.47;8.07;;;0.50;99.90;;;;;;5074481;28;20188;-73
2021/01/16 00:57:26;;;;;;;11.23;8.02;;;0.50;99.90;;;;;;5074227;28;20200;-74
2021/01/16 00:59:52;;;;;;;10.80;7.63;;;0.50;99.90;;;;;;5062329;28;20646;-73
2021/01/16 01:02:18;;;;;;;8.80;7.07;;;0.50;99.90;;;;;;5054713;28;20230;-73
2021/01/16 01:04:43;;;;;;;12.43;8.03;;;0.50;99.90;;;;;;5055479;28;20660;-73
2021/01/16 01:07:10;;;;;;;9.00;7.20;;;0.50;99.90;;;;;;5073855;28;20201;-73
2021/01/16 01:09:45;;;;;;;11.23;8.02;;;0.50;99.90;;;;;;5073662;28;20209;-74
2021/01/16 01:12:12;;;;;;;10.90;8.23;;;0.50;99.90;;;;;;5074844;28;20181;-73
2021/01/16 01:14:38;;;;;;;9.70;7.25;;;0.50;99.90;;;;;;5073956;28;20201;-73
2021/01/16 01:17:18;;;;;;;14.40;8.30;;;0.50;99.90;;;;;;5074595;28;20231;-73
2021/01/16 01:19:44;;;;;;;12.20;7.80;;;0.50;99.90;;;;;;5064789;28;20217;-73
2021/01/16 01:22:10;;;;;;;11.45;7.82;;;0.40;99.90;;;;;;5071667;28;20188;-74
2021/01/16 01:24:37;;;;;;;12.05;7.28;;;0.40;99.90;;;;;;5073911;28;20185;-73
2021/01/16 01:27:04;;;;;;;11.52;7.82;;;0.40;99.90;;;;;;5074154;28;20197;-73
2021/01/16 01:29:30;;;;;;;9.32;7.65;;;0.40;99.90;;;;;;5067810;28;20189;-73
2021/01/16 01:31:56;;;;;;;13.50;7.93;;;0.40;99.90;;;;;;5073993;28;20261;-74
2021/01/16 01:34:21;;;;;;;15.00;9.17;;;0.40;99.90;;;;;;5073634;28;20186;-74
2021/01/16 01:36:47;;;;;;;13.83;8.40;;;0.40;99.90;;;;;;5074058;28;20440;-73
2021/01/16 01:39:12;;;;;;;13.10;8.20;;;0.40;99.90;;;;;;5062242;28;20614;-74
2021/01/16 01:41:39;;;;;;;16.93;10.10;;;0.40;99.90;;;;;;5054213;28;20214;-74
2021/01/16 01:44:05;;;;;;;16.40;10.45;;;0.40;99.90;;;;;;5064440;28;20190;-74
2021/01/16 01:46:33;;;;;;;15.80;9.48;;;0.40;99.90;;;;;;5073733;28;20182;-74
2021/01/16 01:48:59;;;;;;;11.77;7.80;;;0.40;99.90;;;;;;5073423;28;20197;-74
2021/01/16 01:51:29;;;;;;;11.30;7.80;;;0.40;99.90;;;;;;5073694;28;20193;-74
2021/01/16 01:53:55;;;;;;;10.52;7.13;;;0.40;99.90;;;;;;5073220;28;20186;-73
2021/01/16 01:56:24;;;;;;;11.27;8.77;;;0.40;99.90;;;;;;5073029;28;20252;-74
2021/01/16 01:58:52;;;;;;;12.77;8.20;;;0.40;99.90;;;;;;5073043;28;20243;-74
2021/01/16 02:01:21;;;;;;;9.23;7.00;;;0.40;99.90;;;;;;5073517;28;20222;-73
2021/01/16 02:03:50;;;;;;;10.30;7.47;;;0.40;99.90;;;;;;5066975;28;20198;-74
2021/01/16 02:06:16;;;;;;;11.55;8.90;;;0.40;99.90;;;;;;5062443;28;20547;-74
2021/01/16 02:08:42;;;;;;;14.48;10.38;;;0.40;99.90;;;;;;5062784;28;20201;-74
2021/01/16 02:11:12;;;;;;;11.30;8.20;;;0.40;99.90;;;;;;5053628;28;20634;-74
2021/01/16 02:13:38;;;;;;;12.45;8.27;;;0.40;99.90;;;;;;5055356;28;20444;-74
2021/01/16 02:16:17;;;;;;;14.18;7.53;;;0.40;99.90;;;;;;5061079;28;20273;-73
2021/01/16 02:18:45;;;;;;;13.82;9.23;;;0.40;99.90;;;;;;5067957;28;20217;-74
2021/01/16 02:21:17;;;;;;;11.52;7.65;;;0.40;99.90;;;;;;5072876;28;20522;-74
2021/01/16 02:23:49;;;;;;;11.80;8.95;;;0.40;99.90;;;;;;5054639;28;20199;-74
2021/01/16 02:26:45;;;;;;;10.90;7.82;;;0.40;99.90;;;;;;5062001;28;20182;-73
2021/01/16 02:29:11;;;;;;;16.25;8.88;;;0.40;99.90;;;;;;5072536;28;20292;-74
2021/01/16 02:31:53;;;;;;;11.57;7.80;;;0.40;99.90;;;;;;5072487;28;20269;-74
2021/01/16 02:34:23;;;;;;;10.65;8.50;;;0.40;99.90;;;;;;5072163;28;20189;-74
2021/01/16 02:37:19;;;;;;;14.55;8.60;;;0.40;99.90;;;;;;5072902;28;20205;-73
2021/01/16 02:40:05;;;;;;;16.67;10.50;;;0.40;99.90;;;;;;5072161;28;20185;-73
2021/01/16 02:43:04;;;;;;;16.23;10.27;;;0.40;99.90;;;;;;5072911;28;20227;-73
2021/01/16 02:45:38;;;;;;;12.60;8.85;;;0.40;99.90;;;;;;5053145;28;20182;-73
2021/01/16 02:48:24;;;;;;;11.10;8.27;;;0.40;99.90;;;;;;5071216;28;20181;-74
2021/01/16 02:50:52;;;;;;;14.82;9.82;;;0.40;99.90;;;;;;5056751;28;20587;-74
2021/01/16 02:53:22;;;;;;;15.98;9.35;;;0.40;99.90;;;;;;5071874;28;20182;-74
2021/01/16 02:55:49;;;;;;;14.77;9.43;;;0.40;99.90;;;;;;5072424;28;20208;-74
2021/01/16 02:58:18;;;;;;;15.18;8.93;;;0.40;99.90;;;;;;5072142;28;20270;-74
2021/01/16 03:00:44;;;;;;;16.88;10.15;;;0.40;99.90;;;;;;5072639;28;20229;-74
2021/01/16 03:03:10;;;;;;;11.40;8.18;;;0.40;99.90;;;;;;5066915;28;20191;-74
2021/01/16 03:05:36;;;;;;;13.70;8.73;;;0.40;99.90;;;;;;5071554;28;21752;-74
2021/01/16 03:08:03;;;;;;;12.57;8.93;;;0.50;99.90;;;;;;5071921;28;20783;-74
2021/01/16 03:10:29;;;;;;;12.80;8.88;;;0.50;99.90;;;;;;5071733;28;20258;-73
2021/01/16 03:12:55;;;;;;;13.50;8.45;;;0.50;99.90;;;;;;5072480;28;20181;-74
2021/01/16 03:15:21;;;;;;;11.43;8.13;;;0.50;99.90;;;;;;5072036;28;20235;-73
2021/01/16 03:17:53;;;;;;;13.00;9.45;;;0.50;99.90;;;;;;5063519;28;20193;-73
2021/01/16 03:20:29;;;;;;;10.82;8.77;;;0.50;99.90;;;;;;5072500;28;20188;-73
2021/01/16 03:22:57;;;;;;;15.38;9.25;;;0.50;99.90;;;;;;5067607;28;20273;-73
2021/01/16 03:25:26;;;;;;;14.65;9.63;;;0.50;99.90;;;;;;5072132;28;20221;-74
2021/01/16 03:27:52;;;;;;;16.25;9.10;;;0.50;99.90;;;;;;5052374;28;20178;-73
2021/01/16 03:30:18;;;;;;;13.40;8.85;;;0.50;99.90;;;;;;5052443;28;20175;-73
2021/01/16 03:32:45;;;;;;;11.88;9.40;;;0.50;99.90;;;;;;5070044;28;20182;-73
2021/01/16 03:35:12;;;;;;;15.30;9.38;;;0.50;99.90;;;;;;5072329;28;20182;-73
2021/01/16 03:37:38;;;;;;;13.27;9.20;;;0.50;99.90;;;;;;5071520;28;20530;-73
2021/01/16 03:40:09;;;;;;;15.50;8.90;;;0.50;99.90;;;;;;5072409;28;20174;-73
2021/01/16 03:42:35;;;;;;;13.90;8.40;;;0.50;99.90;;;;;;5070040;28;20490;-73
2021/01/16 03:45:06;;;;;;;13.85;8.98;;;0.50;99.90;;;;;;5072427;28;20641;-73
2021/01/16 03:47:31;;;;;;;17.90;9.77;;;0.50;99.90;;;;;;5071282;28;20193;-73
2021/01/16 03:49:57;;;;;;;19.17;12.60;;;0.50;99.90;;;;;;5072203;28;20213;-73
2021/01/16 03:52:33;;;;;;;14.20;9.27;;;0.50;99.90;;;;;;5060076;28;20689;-73
2021/01/16 03:54:59;;;;;;;14.02;9.00;;;0.50;99.90;;;;;;5052594;28;20178;-73
2021/01/16 03:57:26;;;;;;;13.27;10.88;;;0.50;99.90;;;;;;5059342;28;20183;-73
2021/01/16 03:59:55;;;;;;;14.95;11.20;;;0.50;99.90;;;;;;5056867;28;20186;-73
2021/01/16 04:02:21;;;;;;;17.00;9.93;;;0.50;99.90;;;;;;5071285;28;20234;-73
2021/01/16 04:04:47;;;;;;;16.33;9.73;;;0.50;99.90;;;;;;5071958;28;20189;-73
2021/01/16 04:07:13;;;;;;;13.90;9.43;;;0.50;99.90;;;;;;5065746;28;20518;-73
2021/01/16 04:09:40;;;;;;;14.83;10.87;;;0.50;99.90;;;;;;5071939;28;20214;-73
2021/01/16 04:12:06;;;;;;;16.60;9.55;;;0.50;99.90;;;;;;5071172;28;20182;-73
2021/01/16 04:14:31;;;;;;;19.55;10.68;;;0.40;99.90;;;;;;5072161;28;20200;-73
2021/01/16 04:16:57;;;;;;;16.13;10.00;;;0.50;99.90;;;;;;5071118;28;20276;-73
2021/01/16 04:19:22;;;;;;;18.93;10.10;;;0.40;99.90;;;;;;5072043;28;20247;-73
2021/01/16 04:21:48;;;;;;;16.90;10.97;;;0.40;99.90;;;;;;5074828;28;20205;-73
2021/01/16 04:24:14;;;;;;;16.70;11.40;;;0.40;99.90;;;;;;5074132;28;20292;-73
2021/01/16 04:26:39;;;;;;;14.73;9.23;;;0.40;99.90;;;;;;5072835;28;20696;-73
2021/01/16 04:29:05;;;;;;;15.93;11.03;;;0.40;99.90;;;;;;5075697;28;20830;-73
2021/01/16 04:31:31;;;;;;;17.00;9.37;;;0.40;99.90;;;;;;5074640;28;20177;-73
2021/01/16 04:33:56;;;;;;;13.47;9.50;;;0.40;99.90;;;;;;5075450;28;20343;-73
2021/01/16 04:36:22;;;;;;;18.40;9.53;;;0.40;99.90;;;;;;5074503;28;20931;-73
2021/01/16 04:38:47;;;;;;;16.93;8.87;;;0.40;99.90;;;;;;5075466;28;20178;-73
2021/01/16 04:41:13;;;;;;;17.57;10.37;;;0.40;99.90;;;;;;5075019;28;20182;-74
2021/01/16 04:43:40;;;;;;;15.10;10.70;;;0.40;99.90;;;;;;5055315;28;20186;-73
2021/01/16 04:46:07;;;;;;;18.20;10.02;;;0.40;99.90;;;;;;5063052;28;20443;-73
2021/01/16 04:48:35;;;;;;;19.13;9.80;;;0.40;99.90;;;;;;5074400;28;20696;-73
2021/01/16 04:51:02;;;;;;;17.00;10.88;;;0.40;99.90;;;;;;5075192;28;20216;-73
2021/01/16 04:53:39;;;;;;;15.00;11.48;;;0.40;99.90;;;;;;5074333;28;20232;-73
2021/01/16 04:56:05;;;;;;;17.33;10.90;;;0.40;99.90;;;;;;5074284;28;20205;-73
2021/01/16 04:58:38;;;;;;;17.08;11.95;;;0.40;99.90;;;;;;5074334;28;20185;-73
2021/01/16 05:01:05;;;;;;;19.90;11.75;;;0.40;99.90;;;;;;5074951;28;20342;-73
2021/01/16 05:03:42;;;;;;;19.05;10.52;;;0.40;99.90;;;;;;5065367;28;20208;-74
2021/01/16 05:06:12;;;;;;;14.75;10.57;;;0.40;99.90;;;;;;5059833;28;20185;-73
2021/01/16 05:08:40;;;;;;;15.63;10.40;;;0.40;99.90;;;;;;5074158;28;20575;-73
2021/01/16 05:11:17;;;;;;;17.20;10.25;;;0.40;99.90;;;;;;5074735;28;20704;-73
2021/01/16 05:13:45;;;;;;;12.70;8.90;;;0.40;99.90;;;;;;5074022;28;20189;-74
2021/01/16 05:16:15;;;;;;;16.90;10.80;;;0.40;99.90;;;;;;5074380;28;20178;-74
2021/01/16 05:18:43;;;;;;;17.55;9.82;;;0.40;99.90;;;;;;5070451;28;20732;-73
2021/01/16 05:21:11;;;;;;;16.30;10.75;;;0.40;99.90;;;;;;5073256;28;20182;-73
2021/01/16 05:23:44;;;;;;;16.40;10.15;;;0.40;99.90;;;;;;5073848;28;20198;-73
2021/01/16 05:26:11;;;;;;;18.33;11.13;;;0.40;99.90;;;;;;5074024;28;20281;-74
2021/01/16 05:28:38;;;;;;;15.05;9.73;;;0.40;99.90;;;;;;5072721;28;20225;-73
2021/01/16 05:31:08;;;;;;;18.10;10.80;;;0.30;99.90;;;;;;5063171;28;20188;-74
2021/01/16 05:33:38;;;;;;;18.13;10.52;;;0.30;99.90;;;;;;5074250;28;20668;-73
2021/01/16 05:36:07;;;;;;;13.70;10.25;;;0.30;99.90;;;;;;5072260;28;20656;-73
2021/01/16 05:38:42;;;;;;;19.05;10.55;;;0.30;99.90;;;;;;5073382;28;20511;-73
2021/01/16 05:41:11;;;;;;;13.20;9.20;;;0.30;99.90;;;;;;5054319;28;20228;-73
2021/01/16 05:43:38;;;;;;;13.95;10.48;;;0.30;99.90;;;;;;5055395;28;20253;-73
2021/01/16 05:46:06;;;;;;;17.92;10.38;;;0.30;99.90;;;;;;5073911;28;20251;-73
2021/01/16 05:48:32;;;;;;;18.45;11.18;;;0.30;99.90;;;;;;5073163;28;20235;-73
2021/01/16 05:51:00;;;;;;;16.77;9.85;;;0.30;99.90;;;;;;5074058;28;20591;-73
2021/01/16 05:53:26;;;;;;;16.55;10.35;;;0.30;99.90;;;;;;5074093;28;20256;-73
2021/01/16 05:55:54;;;;;;;22.23;12.57;;;0.30;99.90;;;;;;5070317;28;20189;-73
2021/01/16 05:58:20;;;;;;;16.08;11.80;;;0.30;99.90;;;;;;5073807;28;20235;-73
2021/01/16 06:00:51;;;;;;;17.20;11.00;;;0.30;99.90;;;;;;5056025;28;20593;-73
2021/01/16 06:03:18;;;;;;;18.98;10.57;;;0.30;99.90;;;;;;5053855;28;20178;-73
2021/01/16 06:05:52;;;;;;;20.23;12.18;;;0.30;99.90;;;;;;5069538;28;20182;-74
2021/01/16 06:08:21;;;;;;;19.13;10.20;;;0.30;99.90;;;;;;5073775;28;20720;-74
2021/01/16 06:10:56;;;;;;;17.85;10.77;;;0.30;99.90;;;;;;5055827;28;20472;-74
2021/01/16 06:13:25;;;;;;;16.75;9.85;;;0.30;99.90;;;;;;5064700;28;20182;-73
2021/01/16 06:15:53;;;;;;;17.80;11.93;;;0.20;99.90;;;;;;5056163;28;20174;-74
2021/01/16 06:18:28;;;;;;;18.70;11.15;;;0.30;99.90;;;;;;5055356;28;20205;-74
2021/01/16 06:20:55;;;;;;;19.45;12.57;;;0.30;99.90;;;;;;5072553;28;20539;-73
2021/01/16 06:23:25;;;;;;;22.10;11.88;;;0.20;99.90;;;;;;5072908;28;20334;-74
2021/01/16 06:25:53;;;;;;;15.88;10.90;;;0.30;99.90;;;;;;5073074;28;20198;-74
2021/01/16 06:28:21;;;;;;;16.95;10.85;;;0.30;99.90;;;;;;5072742;28;20535;-74
2021/01/16 06:30:52;;;;;;;19.60;10.50;;;0.30;99.90;;;;;;5072487;28;20231;-74
2021/01/16 06:33:23;;;;;;;19.25;11.68;;;0.30;99.90;;;;;;5073047;28;20207;-73
2021/01/16 06:36:19;;;;;;;18.73;10.18;;;0.30;99.90;;;;;;5068438;28;20714;-74
2021/01/16 06:38:55;;;;;;;16.88;11.77;;;0.30;99.90;;;;;;5072408;28;20189;-73
2021/01/16 06:41:27;;;;;;;19.00;11.02;;;0.30;99.90;;;;;;5052039;28;20192;-73
2021/01/16 06:43:53;;;;;;;19.38;11.82;;;0.30;99.90;;;;;;5052983;28;20185;-73
2021/01/16 06:46:23;;;;;;;20.10;12.93;;;0.30;99.90;;;;;;5072122;28;20273;-73
2021/01/16 06:48:48;;;;;;;19.92;10.88;;;0.30;99.90;;;;;;5072604;28;20220;-73
2021/01/16 06:51:23;;;;;;;22.93;12.10;;;0.30;99.90;;;;;;5054332;28;20663;-73
2021/01/16 06:53:50;;;;;;;19.67;11.98;;;0.40;99.90;;;;;;5052716;28;20181;-74
2021/01/16 06:56:24;;;;;;;17.80;11.70;;;0.30;99.90;;;;;;5070867;28;20194;-73
2021/01/16 06:58:53;;;;;;;18.73;10.20;;;0.40;99.90;;;;;;5065004;28;20284;-73
2021/01/16 07:01:29;;;;;;;18.23;10.60;;;0.40;99.90;;;;;;5072573;28;20229;-73
2021/01/16 07:03:57;;;;;;;13.93;9.30;;;0.40;99.90;;;;;;5071980;28;20185;-73
2021/01/16 07:06:22;;;;;;;18.05;11.57;;;0.30;99.90;;;;;;5072527;28;20269;-73
2021/01/16 07:08:51;;;;;;;15.17;10.13;;;0.40;99.90;;;;;;5071697;28;20297;-73
2021/01/16 07:11:16;;;;;;;21.15;12.10;;;0.40;99.90;;;;;;5072750;28;20174;-73
2021/01/16 07:13:42;;;;;;;15.30;11.23;;;0.40;99.90;;;;;;5072272;28;20710;-73
2021/01/16 07:16:08;;;;;;;15.27;10.30;;;0.40;99.90;;;;;;5072631;28;20862;-74
2021/01/16 07:18:35;;;;;;;18.63;11.00;;;0.40;99.90;;;;;;5071653;28;20436;-73
2021/01/16 07:21:01;;;;;;;15.55;10.45;;;0.40;99.90;;;;;;5072763;28;20205;-76
2021/01/16 07:23:28;;;;;;;14.60;10.10;;;0.40;99.90;;;;;;5064908;28;20673;-74
2021/01/16 07:25:54;;;;;;;16.67;10.77;;;0.40;99.90;;;;;;5057143;28;20526;-73
2021/01/16 07:28:22;;;;;;;17.83;10.77;;;0.40;99.90;;;;;;5068036;28;20237;-73
2021/01/16 07:30:49;;;;;;;17.42;11.27;;;0.40;99.90;;;;;;5072019;28;21384;-73
2021/01/16 07:33:15;;;;;;;18.60;11.80;;;0.40;99.90;;;;;;5071740;28;20200;-73
2021/01/16 07:35:48;;;;;;;15.77;10.02;;;0.40;99.90;;;;;;5072386;28;20181;-73
2021/01/16 07:38:18;;;;;;;17.50;10.25;;;0.40;99.90;;;;;;5071475;28;20664;-73
2021/01/16 07:40:45;;;;;;;17.20;10.63;;;0.30;99.90;;;;;;5071430;28;20603;-73
2021/01/16 07:43:45;;;;;;;15.25;9.65;;;0.40;99.90;;;;;;5066924;28;20213;-73
2021/01/16 07:46:11;;;;;;;15.88;10.75;;;0.40;99.90;;;;;;5052191;28;20650;-74
2021/01/16 07:48:48;;;;;;;23.30;12.87;;;0.40;99.90;;;;;;5065809;28;20217;-73
2021/01/16 07:51:18;;;;;;;16.75;12.05;;;0.40;99.90;;;;;;5072354;28;20984;-73
2021/01/16 07:53:44;;;;;;;18.55;10.85;;;0.40;99.90;;;;;;5063681;28;20177;-74
2021/01/16 07:56:21;;;;;;;16.45;10.65;;;0.40;99.90;;;;;;5055495;28;20530;-74
2021/01/16 07:59:14;;;;;;;21.33;11.80;;;0.40;99.90;;;;;;5071594;28;20276;-72
2021/01/16 08:01:40;;;;;;;16.23;9.43;;;0.40;99.90;;;;;;5076118;28;20306;-72
2021/01/16 08:04:32;;;;;;;16.20;10.73;;;0.40;99.90;;;;;;5074545;28;20217;-72
2021/01/16 08:07:10;;;;;;;12.95;8.55;;;0.50;99.90;;;;;;5075948;28;20177;-75
2021/01/16 08:09:57;;;;;;;12.80;8.75;;;0.50;99.90;;;;;;5075113;28;20260;-75
2021/01/16 08:12:27;;;;;;;19.52;10.68;;;0.50;99.90;;;;;;5075901;28;20182;-74
2021/01/16 08:14:54;;;;;;;16.50;11.30;;;0.50;99.90;;;;;;5067687;28;20664;-74
2021/01/16 08:17:27;;;;;;;17.77;9.23;;;0.50;99.90;;;;;;5065676;28;20547;-74
2021/01/16 08:20:17;;;;;;;20.45;11.25;;;0.60;99.90;;;;;;5075096;28;20193;-74
2021/01/16 08:22:44;;;;;;;13.68;9.60;;;0.60;99.90;;;;;;5075860;28;20648;-73
2021/01/16 08:25:12;;;;;;;12.50;9.55;;;0.60;99.90;;;;;;5074491;28;20186;-74
2021/01/16 08:27:47;;;;;;;11.90;9.02;;;0.60;99.90;;;;;;5074613;28;20190;-74
2021/01/16 08:30:15;;;;;;;12.38;9.00;;;0.70;99.90;;;;;;5074911;28;20358;-74
2021/01/16 08:33:08;;;;;;;15.25;10.57;;;0.70;99.90;;;;;;5075699;28;20185;-73
2021/01/16 08:35:39;;;;;;;14.68;9.35;;;0.80;99.90;;;;;;5072128;28;20182;-74
2021/01/16 08:38:17;;;;;;;14.13;10.00;;;0.80;99.90;;;;;;5075303;28;20265;-74
2021/01/16 08:41:08;;;;;;;18.33;10.40;;;0.80;99.90;;;;;;5075080;28;20598;-74
2021/01/16 08:43:33;;;;;;;13.48;9.00;;;0.80;99.90;;;;;;5072859;28;20221;-74
2021/01/16 08:46:06;;;;;;;12.00;8.60;;;0.90;99.90;;;;;;5073001;28;20403;-73
2021/01/16 08:48:32;;;;;;;17.38;10.68;;;0.90;99.90;;;;;;5064238;28;20209;-73
2021/01/16 08:50:57;;;;;;;18.00;10.80;;;1.00;99.90;;;;;;5075290;28;20175;-73
2021/01/16 08:53:23;;;;;;;21.07;11.67;;;0.90;99.90;;;;;;5074571;28;20178;-74
2021/01/16 08:55:48;;;;;;;18.53;10.33;;;1.00;99.90;;;;;;5074393;28;20209;-74
2021/01/16 08:58:14;;;;;;;20.97;12.47;;;1.00;99.90;;;;;;5074206;28;20841;-74
2021/01/16 09:00:41;;;;;;;24.00;11.23;;;1.10;99.90;;;;;;5073001;28;20218;-73
2021/01/16 09:03:07;;;;;;;16.65;10.35;;;1.10;99.90;;;;;;5064531;28;20190;-74
2021/01/16 09:05:34;;;;;;;15.13;11.10;;;1.20;99.90;;;;;;5054893;28;20664;-74
2021/01/16 09:08:01;;;;;;;17.40;10.57;;;1.20;99.90;;;;;;5054786;28;20182;-74
2021/01/16 09:10:28;;;;;;;17.35;9.52;;;1.30;99.90;;;;;;5066646;28;20677;-74
2021/01/16 09:12:54;;;;;;;15.30;10.30;;;1.40;99.90;;;;;;5058278;28;20545;-74
2021/01/16 09:15:25;;;;;;;18.90;12.07;;;1.50;99.90;;;;;;5057109;28;20199;-74
2021/01/16 09:18:13;;;;;;;15.50;10.65;;;1.60;99.90;;;;;;5057811;28;20190;-74
2021/01/16 09:20:54;;;;;;;17.90;10.90;;;1.70;99.90;;;;;;5068140;28;20530;-74
2021/01/16 09:23:30;;;;;;;15.77;10.80;;;1.70;99.90;;;;;;5069844;28;20280;-74
2021/01/16 09:26:09;;;;;;;17.05;11.38;;;1.80;99.90;;;;;;5073561;28;20228;-73
2021/01/16 09:28:42;;;;;;;17.65;11.50;;;1.80;99.90;;;;;;5073434;28;20202;-74
2021/01/16 09:31:29;;;;;;;12.85;8.85;;;1.90;99.90;;;;;;5068443;28;20194;-75
2021/01/16 09:34:07;;;;;;;16.63;10.55;;;1.90;99.90;;;;;;5073596;28;20210;-73
2021/01/16 09:36:39;;;;;;;14.57;9.90;;;2.00;99.90;;;;;;5072425;28;20816;-74
2021/01/16 09:39:26;;;;;;;15.00;10.50;;;2.00;99.90;;;;;;5070178;28;20186;-74
2021/01/16 09:41:55;;;;;;;12.98;9.75;;;2.00;99.90;;;;;;5054267;28;20213;-74
2021/01/16 09:44:39;;;;;;;38.45;21.50;;;2.00;99.90;;;;;;5058350;28;20578;-74
2021/01/16 09:47:25;;;;;;;26.50;15.80;;;2.00;99.70;;;;;;5059083;28;20189;-73
2021/01/16 09:49:51;;;;;;;19.52;11.25;;;2.00;98.20;;;;;;5071990;28;20214;-74
2021/01/16 09:52:17;;;;;;;15.82;12.15;;;2.00;97.60;;;;;;5068017;28;20189;-73
2021/01/16 09:54:43;;;;;;;14.33;10.20;;;2.10;97.00;;;;;;5067673;28;20186;-73
2021/01/16 09:57:09;;;;;;;17.48;11.00;;;2.10;97.00;;;;;;5072200;28;20181;-74
2021/01/16 09:59:35;;;;;;;17.30;10.80;;;2.20;96.40;;;;;;5057086;28;20264;-74
2021/01/16 10:02:13;;;;;;;14.80;9.83;;;2.20;95.10;;;;;;5055517;28;20464;-73
2021/01/16 10:04:41;;;;;;;11.55;9.10;;;2.20;95.20;;;;;;5057230;28;20189;-74
2021/01/16 10:07:12;;;;;;;13.05;10.20;;;2.20;94.60;;;;;;5072054;28;20243;-73
2021/01/16 10:09:43;;;;;;;10.30;8.55;;;2.30;94.70;;;;;;5074284;28;20229;-76
2021/01/16 10:12:28;;;;;;;13.40;8.98;;;2.40;94.30;;;;;;5077974;28;20171;-73
2021/01/16 10:14:57;;;;;;;11.98;8.05;;;2.50;92.90;;;;;;5071821;28;20477;-74
2021/01/16 10:17:24;;;;;;;12.07;8.20;;;2.50;92.40;;;;;;5058264;28;20179;-73
2021/01/16 10:19:51;;;;;;;11.30;8.60;;;2.60;91.10;;;;;;5055932;28;20194;-74
2021/01/16 10:22:19;;;;;;;12.93;9.35;;;2.60;91.50;;;;;;5057349;28;20281;-74
2021/01/16 10:24:45;;;;;;;14.63;10.05;;;2.70;91.80;;;;;;5071539;28;20182;-73
2021/01/16 10:27:11;;;;;;;12.60;9.70;;;2.80;91.70;;;;;;5072515;28;20648;-74
2021/01/16 10:29:40;;;;;;;12.50;8.73;;;3.00;91.60;;;;;;5069663;28;20986;-74
2021/01/16 10:32:18;;;;;;;10.90;7.80;;;3.10;90.60;;;;;;5073098;28;20251;-73
2021/01/16 10:34:44;;;;;;;9.85;7.63;;;3.30;90.40;;;;;;5053210;28;20182;-73
2021/01/16 10:37:11;;;;;;;9.80;6.75;;;3.40;89.90;;;;;;5053081;28;20178;-74
2021/01/16 10:39:39;;;;;;;10.50;8.15;;;3.60;87.20;;;;;;5072597;28;20181;-73
2021/01/16 10:42:15;;;;;;;9.55;7.75;;;3.80;86.30;;;;;;5071280;28;20337;-73
2021/01/16 10:44:41;;;;;;;9.00;7.00;;;3.80;83.10;;;;;;5071114;28;20243;-72
2021/01/16 10:47:36;;;;;;;11.73;7.90;;;4.00;79.90;;;;;;5072884;28;20177;-72
2021/01/16 10:50:11;;;;;;;9.07;6.30;;;4.20;80.50;;;;;;5058657;28;20571;-72
2021/01/16 10:52:37;;;;;;;8.45;6.60;;;4.40;77.80;;;;;;5053064;28;20630;-72
2021/01/16 10:55:14;;;;;;;9.73;7.68;;;4.60;76.80;;;;;;5067954;28;20637;-72
2021/01/16 10:57:48;;;;;;;7.13;6.40;;;4.80;76.80;;;;;;5077380;28;20189;-73
2021/01/16 11:00:19;;;;;;;7.47;6.65;;;5.00;76.10;;;;;;5068509;28;20182;-72
2021/01/16 11:02:47;;;;;;;7.38;6.05;;;5.30;75.80;;;;;;5072380;28;20351;-72
2021/01/16 11:05:18;;;;;;;7.43;6.32;;;5.50;73.00;;;;;;5071418;28;20196;-73
2021/01/16 11:07:45;;;;;;;9.02;6.68;;;5.90;71.80;;;;;;5072406;28;20542;-73
2021/01/16 11:10:28;;;;;;;7.03;5.55;;;8.20;76.80;;;;;;5071732;28;20228;-73
2021/01/16 11:12:54;;;;;;;6.30;5.22;;;11.00;64.40;;;;;;5072137;28;20530;-73
2021/01/16 11:15:30;;;;;;;5.90;5.10;;;13.60;57.50;;;;;;5054183;28;20234;-73
2021/01/16 11:17:57;;;;;;;5.03;4.13;;;15.60;47.50;;;;;;5070047;28;20643;-73
2021/01/16 11:20:25;;;;;;;4.73;4.33;;;17.30;42.70;;;;;;5067164;28;20192;-74
2021/01/16 11:23:16;;;;;;;3.00;2.80;;;19.10;35.60;;;;;;5072666;28;20413;-74
2021/01/16 11:25:43;;;;;;;3.30;3.10;;;20.10;29.50;;;;;;5071927;28;20447;-74
2021/01/16 11:28:11;;;;;;;2.87;2.67;;;19.60;26.90;;;;;;5069437;28;20439;-74
2021/01/16 11:30:46;;;;;;;2.90;2.70;;;18.60;27.50;;;;;;5070794;28;20539;-74
2021/01/16 11:33:14;;;;;;;3.07;2.87;;;17.50;27.40;;;;;;5071460;28;20432;-74
2021/01/16 11:35:41;;;;;;;3.17;2.97;;;16.60;28.00;;;;;;5071464;28;20877;-74
2021/01/16 11:38:46;;;;;;;3.33;3.03;;;15.80;28.50;;;;;;5072150;28;20507;-73
2021/01/16 11:41:13;;;;;;;4.83;4.40;;;14.90;29.30;;;;;;5057741;28;20436;-73
2021/01/16 11:43:40;;;;;;;3.88;3.58;;;13.90;29.90;;;;;;5072445;28;20422;-73
2021/01/16 11:46:13;;;;;;;5.18;4.60;;;13.30;31.30;;;;;;5071587;28;20608;-73
2021/01/16 11:48:40;;;;;;;4.15;3.65;;;13.90;32.80;;;;;;5072162;28;20208;-73
2021/01/16 11:51:17;;;;;;;4.10;3.80;;;15.50;32.30;;;;;;5071564;28;20292;-74
2021/01/16 11:53:50;;;;;;;4.40;4.00;;;16.70;29.90;;;;;;5072144;28;20196;-74
2021/01/16 11:56:19;;;;;;;5.63;5.13;;;16.30;28.40;;;;;;5071378;28;20532;-74
2021/01/16 11:58:46;;;;;;;4.80;4.43;;;16.60;28.60;;;;;;5071668;28;20437;-74
2021/01/16 12:01:15;;;;;;;5.30;4.80;;;17.10;28.20;;;;;;5066308;28;20463;-74
2021/01/16 12:03:42;;;;;;;5.60;5.10;;;18.00;28.50;;;;;;5063930;28;20504;-75
2021/01/16 12:06:13;;;;;;;5.30;4.77;;;18.10;28.00;;;;;;5070146;28;20455;-74
2021/01/16 12:08:43;;;;;;;5.13;4.27;;;18.40;28.30;;;;;;5071643;28;20448;-74
2021/01/16 12:11:09;;;;;;;4.60;4.30;;;19.50;28.20;;;;;;5071630;28;20798;-74
2021/01/16 12:13:34;;;;;;;6.80;6.20;;;20.90;26.30;;;;;;5071534;28;20431;-74
2021/01/16 12:16:00;;;;;;;5.83;5.37;;;22.00;25.10;;;;;;5070721;28;20192;-74
2021/01/16 12:18:27;;;;;;;5.00;4.47;;;23.20;25.10;;;;;;5071880;28;20268;-74
2021/01/16 12:20:53;;;;;;;3.40;3.20;;;24.20;23.80;;;;;;5069924;28;20183;-74
2021/01/16 12:23:20;;;;;;;3.20;3.00;;;24.40;22.30;;;;;;5071480;28;20438;-74
2021/01/16 12:25:51;;;;;;;3.43;3.20;;;22.60;20.40;;;;;;5070878;28;20536;-74
2021/01/16 12:28:23;;;;;;;3.40;3.10;;;20.20;21.70;;;;;;5071736;28;20435;-74
2021/01/16 12:30:49;;;;;;;3.30;3.00;;;18.20;23.40;;;;;;5066113;28;20444;-73
2021/01/16 12:33:22;;;;;;;5.80;5.30;;;16.70;25.10;;;;;;5071956;28;20428;-73
2021/01/16 12:35:47;;;;;;;6.30;5.70;;;15.40;26.50;;;;;;5065717;28;20194;-73
2021/01/16 12:38:13;;;;;;;7.20;5.80;;;14.20;27.50;;;;;;5071727;28;20435;-73
2021/01/16 12:40:40;;;;;;;4.17;3.77;;;13.00;28.80;;;;;;5064194;28;20214;-73
2021/01/16 12:43:11;;;;;;;5.32;4.85;;;11.90;29.70;;;;;;5075615;28;20173;-73
2021/01/16 12:45:36;;;;;;;4.25;3.85;;;10.90;31.20;;;;;;5067150;28;20186;-73
2021/01/16 12:48:04;;;;;;;4.27;3.97;;;10.00;33.10;;;;;;5075276;28;20747;-72
2021/01/16 12:50:29;;;;;;;4.60;4.20;;;9.30;35.80;;;;;;5074616;28;20304;-72
2021/01/16 12:52:56;;;;;;;7.80;7.20;;;8.70;37.30;;;;;;5074962;28;20218;-72
2021/01/16 12:55:26;;;;;;;6.60;5.90;;;8.10;39.00;;;;;;5074015;28;20541;-72
2021/01/16 12:57:53;;;;;;;4.40;4.00;;;7.60;40.00;;;;;;5074270;28;20587;-73